sensor_id;sensor_type;location;lat;lon;timestamp;pressure;altitude;pressure_sealevel;temperature;humidity
49827;BME280;35715;51.570;6.036;2023-09-07T00:00:19;101795.38;;;22.62;66.24
49827;BME280;35715;51.570;6.036;2023-09-07T00:02:44;101791.72;;;22.59;65.95
49827;BME280;35715;51.570;6.036;2023-09-07T00:05:10;101790.75;;;22.55;65.69
49827;BME280;35715;51.570;6.036;2023-09-07T00:07:35;101795.13;;;22.55;65.98
49827;BME280;35715;51.570;6.036;2023-09-07T00:10:01;101787.13;;;22.52;66.04
49827;BME280;35715;51.570;6.036;2023-09-07T00:12:26;101794.00;;;22.48;66.59
49827;BME280;35715;51.570;6.036;2023-09-07T00:14:52;101795.75;;;22.47;65.82
49827;BME280;35715;51.570;6.036;2023-09-07T00:17:19;101791.31;;;22.46;65.89
49827;BME280;35715;51.570;6.036;2023-09-07T00:19:44;101789.44;;;22.42;65.90
49827;BME280;35715;51.570;6.036;2023-09-07T00:22:12;101793.75;;;22.40;65.80
49827;BME280;35715;51.570;6.036;2023-09-07T00:24:37;101787.50;;;22.37;66.04
49827;BME280;35715;51.570;6.036;2023-09-07T00:27:03;101786.44;;;22.31;66.48
49827;BME280;35715;51.570;6.036;2023-09-07T00:29:31;101791.44;;;22.25;66.50
49827;BME280;35715;51.570;6.036;2023-09-07T00:31:57;101796.44;;;22.18;66.97
49827;BME280;35715;51.570;6.036;2023-09-07T00:34:22;101795.44;;;22.14;66.90
49827;BME280;35715;51.570;6.036;2023-09-07T00:36:47;101793.63;;;22.13;66.63
49827;BME280;35715;51.570;6.036;2023-09-07T00:39:12;101797.00;;;22.09;67.36
49827;BME280;35715;51.570;6.036;2023-09-07T00:41:38;101795.13;;;22.05;67.41
49827;BME280;35715;51.570;6.036;2023-09-07T00:44:03;101788.06;;;22.04;67.40
49827;BME280;35715;51.570;6.036;2023-09-07T00:46:28;101784.44;;;22.00;68.46
49827;BME280;35715;51.570;6.036;2023-09-07T00:48:54;101787.72;;;21.94;67.75
49827;BME280;35715;51.570;6.036;2023-09-07T00:51:19;101778.81;;;21.89;68.10
49827;BME280;35715;51.570;6.036;2023-09-07T00:53:45;101776.84;;;21.84;68.46
49827;BME280;35715;51.570;6.036;2023-09-07T00:56:10;101776.66;;;21.79;68.78
49827;BME280;35715;51.570;6.036;2023-09-07T00:58:36;101776.63;;;21.77;68.62
49827;BME280;35715;51.570;6.036;2023-09-07T01:01:02;101771.25;;;21.74;68.67
49827;BME280;35715;51.570;6.036;2023-09-07T01:03:28;101779.78;;;21.69;69.19
49827;BME280;35715;51.570;6.036;2023-09-07T01:05:57;101763.81;;;21.62;68.65
49827;BME280;35715;51.570;6.036;2023-09-07T01:08:24;101780.34;;;21.60;68.63
49827;BME280;35715;51.570;6.036;2023-09-07T01:10:51;101775.78;;;21.56;68.48
49827;BME280;35715;51.570;6.036;2023-09-07T01:13:17;101778.19;;;21.50;68.98
49827;BME280;35715;51.570;6.036;2023-09-07T01:15:43;101772.78;;;21.47;68.33
49827;BME280;35715;51.570;6.036;2023-09-07T01:18:08;101774.41;;;21.43;68.54
49827;BME280;35715;51.570;6.036;2023-09-07T01:20:34;101773.25;;;21.35;69.47
49827;BME280;35715;51.570;6.036;2023-09-07T01:23:00;101773.94;;;21.31;69.27
49827;BME280;35715;51.570;6.036;2023-09-07T01:25:26;101779.97;;;21.28;69.48
49827;BME280;35715;51.570;6.036;2023-09-07T01:27:53;101775.53;;;21.27;68.93
49827;BME280;35715;51.570;6.036;2023-09-07T01:30:18;101781.59;;;21.24;69.02
49827;BME280;35715;51.570;6.036;2023-09-07T01:32:43;101777.13;;;21.22;69.04
49827;BME280;35715;51.570;6.036;2023-09-07T01:35:09;101773.47;;;21.18;69.29
49827;BME280;35715;51.570;6.036;2023-09-07T01:37:35;101770.69;;;21.14;69.49
49827;BME280;35715;51.570;6.036;2023-09-07T01:40:00;101769.72;;;21.12;69.19
49827;BME280;35715;51.570;6.036;2023-09-07T01:42:25;101769.59;;;21.08;69.53
49827;BME280;35715;51.570;6.036;2023-09-07T01:44:51;101765.03;;;21.04;70.10
49827;BME280;35715;51.570;6.036;2023-09-07T01:47:16;101767.47;;;21.00;69.61
49827;BME280;35715;51.570;6.036;2023-09-07T01:49:41;101764.88;;;21.00;69.84
49827;BME280;35715;51.570;6.036;2023-09-07T01:52:06;101762.97;;;20.96;69.71
49827;BME280;35715;51.570;6.036;2023-09-07T01:54:32;101764.56;;;20.92;69.71
49827;BME280;35715;51.570;6.036;2023-09-07T01:56:57;101760.88;;;20.87;70.64
49827;BME280;35715;51.570;6.036;2023-09-07T01:59:23;101764.38;;;20.87;69.98
49827;BME280;35715;51.570;6.036;2023-09-07T02:01:48;101760.81;;;20.85;70.71
49827;BME280;35715;51.570;6.036;2023-09-07T02:04:13;101765.09;;;20.83;70.78
49827;BME280;35715;51.570;6.036;2023-09-07T02:06:38;101758.88;;;20.81;71.33
49827;BME280;35715;51.570;6.036;2023-09-07T02:09:04;101764.00;;;20.78;70.63
49827;BME280;35715;51.570;6.036;2023-09-07T02:11:29;101764.66;;;20.72;71.44
49827;BME280;35715;51.570;6.036;2023-09-07T02:13:54;101760.31;;;20.73;71.41
49827;BME280;35715;51.570;6.036;2023-09-07T02:16:20;101762.03;;;20.72;70.92
49827;BME280;35715;51.570;6.036;2023-09-07T02:18:48;101759.22;;;20.68;71.82
49827;BME280;35715;51.570;6.036;2023-09-07T02:21:14;101753.75;;;20.63;71.96
49827;BME280;35715;51.570;6.036;2023-09-07T02:23:39;101757.97;;;20.60;71.85
49827;BME280;35715;51.570;6.036;2023-09-07T02:26:05;101756.19;;;20.59;72.31
49827;BME280;35715;51.570;6.036;2023-09-07T02:28:30;101752.56;;;20.55;72.12
49827;BME280;35715;51.570;6.036;2023-09-07T02:31:02;101760.28;;;20.52;72.82
49827;BME280;35715;51.570;6.036;2023-09-07T02:33:27;101755.88;;;20.51;72.25
49827;BME280;35715;51.570;6.036;2023-09-07T02:35:53;101754.00;;;20.48;72.52
49827;BME280;35715;51.570;6.036;2023-09-07T02:38:18;101756.63;;;20.48;72.83
49827;BME280;35715;51.570;6.036;2023-09-07T02:40:43;101760.91;;;20.46;72.82
49827;BME280;35715;51.570;6.036;2023-09-07T02:43:09;101760.03;;;20.46;72.38
49827;BME280;35715;51.570;6.036;2023-09-07T02:45:35;101766.03;;;20.43;72.54
49827;BME280;35715;51.570;6.036;2023-09-07T02:48:00;101762.47;;;20.41;72.56
49827;BME280;35715;51.570;6.036;2023-09-07T02:50:25;101760.66;;;20.40;72.49
49827;BME280;35715;51.570;6.036;2023-09-07T02:52:50;101757.97;;;20.38;72.87
49827;BME280;35715;51.570;6.036;2023-09-07T02:55:16;101758.81;;;20.37;72.71
49827;BME280;35715;51.570;6.036;2023-09-07T02:57:41;101760.47;;;20.35;73.24
49827;BME280;35715;51.570;6.036;2023-09-07T03:00:06;101757.72;;;20.32;73.27
49827;BME280;35715;51.570;6.036;2023-09-07T03:02:36;101757.59;;;20.29;73.49
49827;BME280;35715;51.570;6.036;2023-09-07T03:05:02;101760.16;;;20.28;73.36
49827;BME280;35715;51.570;6.036;2023-09-07T03:07:29;101758.34;;;20.27;73.30
49827;BME280;35715;51.570;6.036;2023-09-07T03:09:55;101760.91;;;20.25;72.96
49827;BME280;35715;51.570;6.036;2023-09-07T03:12:20;101765.00;;;20.18;73.46
49827;BME280;35715;51.570;6.036;2023-09-07T03:14:46;101756.09;;;20.15;73.15
49827;BME280;35715;51.570;6.036;2023-09-07T03:17:11;101759.50;;;20.12;73.02
49827;BME280;35715;51.570;6.036;2023-09-07T03:19:36;101757.69;;;20.11;73.05
49827;BME280;35715;51.570;6.036;2023-09-07T03:22:02;101756.75;;;20.09;73.32
49827;BME280;35715;51.570;6.036;2023-09-07T03:24:28;101766.13;;;20.04;73.11
49827;BME280;35715;51.570;6.036;2023-09-07T03:26:53;101764.34;;;20.03;73.84
49827;BME280;35715;51.570;6.036;2023-09-07T03:29:19;101759.84;;;20.00;73.27
49827;BME280;35715;51.570;6.036;2023-09-07T03:31:47;101761.44;;;19.97;72.73
49827;BME280;35715;51.570;6.036;2023-09-07T03:34:12;101754.16;;;19.90;73.34
49827;BME280;35715;51.570;6.036;2023-09-07T03:36:38;101759.19;;;19.85;74.21
49827;BME280;35715;51.570;6.036;2023-09-07T03:39:03;101758.34;;;19.86;73.81
49827;BME280;35715;51.570;6.036;2023-09-07T03:41:28;101759.19;;;19.85;74.20
49827;BME280;35715;51.570;6.036;2023-09-07T03:43:56;101759.94;;;19.82;74.06
49827;BME280;35715;51.570;6.036;2023-09-07T03:46:21;101768.59;;;19.81;74.08
49827;BME280;35715;51.570;6.036;2023-09-07T03:48:46;101766.84;;;19.80;74.20
49827;BME280;35715;51.570;6.036;2023-09-07T03:51:11;101758.00;;;19.78;74.32
49827;BME280;35715;51.570;6.036;2023-09-07T03:53:36;101757.75;;;19.74;74.45
49827;BME280;35715;51.570;6.036;2023-09-07T03:56:02;101748.09;;;19.73;73.82
49827;BME280;35715;51.570;6.036;2023-09-07T03:58:29;101755.81;;;19.69;74.06
49827;BME280;35715;51.570;6.036;2023-09-07T04:00:54;101756.66;;;19.68;74.78
49827;BME280;35715;51.570;6.036;2023-09-07T04:03:19;101751.22;;;19.64;74.61
49827;BME280;35715;51.570;6.036;2023-09-07T04:05:44;101749.28;;;19.60;75.23
49827;BME280;35715;51.570;6.036;2023-09-07T04:08:10;101750.97;;;19.58;74.45
49827;BME280;35715;51.570;6.036;2023-09-07T04:10:38;101758.66;;;19.55;74.31
49827;BME280;35715;51.570;6.036;2023-09-07T04:13:04;101762.91;;;19.53;74.09
49827;BME280;35715;51.570;6.036;2023-09-07T04:15:29;101767.13;;;19.49;74.91
49827;BME280;35715;51.570;6.036;2023-09-07T04:17:56;101765.19;;;19.45;74.67
49827;BME280;35715;51.570;6.036;2023-09-07T04:20:21;101764.16;;;19.41;74.81
49827;BME280;35715;51.570;6.036;2023-09-07T04:22:47;101766.63;;;19.38;75.57
49827;BME280;35715;51.570;6.036;2023-09-07T04:25:12;101764.84;;;19.37;75.08
49827;BME280;35715;51.570;6.036;2023-09-07T04:27:37;101767.38;;;19.36;75.33
49827;BME280;35715;51.570;6.036;2023-09-07T04:30:03;101765.66;;;19.36;75.60
49827;BME280;35715;51.570;6.036;2023-09-07T04:32:28;101759.53;;;19.36;75.21
49827;BME280;35715;51.570;6.036;2023-09-07T04:34:56;101769.03;;;19.33;75.43
49827;BME280;35715;51.570;6.036;2023-09-07T04:37:22;101769.78;;;19.31;75.81
49827;BME280;35715;51.570;6.036;2023-09-07T04:39:50;101758.44;;;19.30;75.43
49827;BME280;35715;51.570;6.036;2023-09-07T04:42:15;101763.59;;;19.29;75.45
49827;BME280;35715;51.570;6.036;2023-09-07T04:44:40;101762.53;;;19.25;75.56
49827;BME280;35715;51.570;6.036;2023-09-07T04:47:06;101760.00;;;19.27;75.31
49827;BME280;35715;51.570;6.036;2023-09-07T04:49:31;101764.25;;;19.25;75.72
49827;BME280;35715;51.570;6.036;2023-09-07T04:51:59;101763.38;;;19.24;75.73
49827;BME280;35715;51.570;6.036;2023-09-07T04:54:24;101757.97;;;19.21;76.39
49827;BME280;35715;51.570;6.036;2023-09-07T04:56:52;101763.22;;;19.21;76.07
49827;BME280;35715;51.570;6.036;2023-09-07T04:59:18;101757.16;;;19.22;76.24
49827;BME280;35715;51.570;6.036;2023-09-07T05:01:43;101759.72;;;19.21;76.44
49827;BME280;35715;51.570;6.036;2023-09-07T05:04:08;101759.63;;;19.19;76.18
49827;BME280;35715;51.570;6.036;2023-09-07T05:06:33;101762.25;;;19.19;76.49
49827;BME280;35715;51.570;6.036;2023-09-07T05:09:02;101772.72;;;19.19;76.81
49827;BME280;35715;51.570;6.036;2023-09-07T05:11:27;101767.47;;;19.19;76.50
49827;BME280;35715;51.570;6.036;2023-09-07T05:13:52;101770.91;;;19.18;77.06
49827;BME280;35715;51.570;6.036;2023-09-07T05:16:21;101772.72;;;19.19;76.96
49827;BME280;35715;51.570;6.036;2023-09-07T05:18:46;101772.72;;;19.19;77.21
49827;BME280;35715;51.570;6.036;2023-09-07T05:21:12;101770.97;;;19.20;77.18
49827;BME280;35715;51.570;6.036;2023-09-07T05:23:37;101777.06;;;19.19;77.36
49827;BME280;35715;51.570;6.036;2023-09-07T05:26:03;101777.94;;;19.19;77.72
49827;BME280;35715;51.570;6.036;2023-09-07T05:28:28;101778.09;;;19.22;77.06
49827;BME280;35715;51.570;6.036;2023-09-07T05:30:53;101781.59;;;19.23;76.90
49827;BME280;35715;51.570;6.036;2023-09-07T05:33:18;101778.03;;;19.21;77.39
49827;BME280;35715;51.570;6.036;2023-09-07T05:35:44;101778.97;;;19.23;76.86
49827;BME280;35715;51.570;6.036;2023-09-07T05:38:10;101777.34;;;19.25;77.21
49827;BME280;35715;51.570;6.036;2023-09-07T05:40:36;101790.56;;;19.28;78.31
49827;BME280;35715;51.570;6.036;2023-09-07T05:43:02;101789.00;;;19.31;79.24
49827;BME280;35715;51.570;6.036;2023-09-07T05:45:29;101793.41;;;19.32;80.34
49827;BME280;35715;51.570;6.036;2023-09-07T05:47:54;101794.59;;;19.39;80.38
49827;BME280;35715;51.570;6.036;2023-09-07T05:50:19;101797.41;;;19.44;79.96
49827;BME280;35715;51.570;6.036;2023-09-07T05:52:45;101799.34;;;19.48;80.09
49827;BME280;35715;51.570;6.036;2023-09-07T05:55:10;101799.44;;;19.49;80.69
49827;BME280;35715;51.570;6.036;2023-09-07T05:57:35;101808.34;;;19.53;81.49
49827;BME280;35715;51.570;6.036;2023-09-07T06:00:01;101802.25;;;19.54;81.40
49827;BME280;35715;51.570;6.036;2023-09-07T06:02:26;101801.59;;;19.58;80.49
49827;BME280;35715;51.570;6.036;2023-09-07T06:04:51;101815.69;;;19.62;81.05
49827;BME280;35715;51.570;6.036;2023-09-07T06:07:17;101815.84;;;19.65;80.97
49827;BME280;35715;51.570;6.036;2023-09-07T06:09:42;101812.41;;;19.66;81.32
49827;BME280;35715;51.570;6.036;2023-09-07T06:12:07;101813.44;;;19.69;80.55
49827;BME280;35715;51.570;6.036;2023-09-07T06:14:32;101822.34;;;19.73;80.77
49827;BME280;35715;51.570;6.036;2023-09-07T06:16:58;101822.47;;;19.76;81.14
49827;BME280;35715;51.570;6.036;2023-09-07T06:19:23;101821.69;;;19.77;80.64
49827;BME280;35715;51.570;6.036;2023-09-07T06:21:48;101824.38;;;19.79;80.62
49827;BME280;35715;51.570;6.036;2023-09-07T06:24:14;101827.16;;;19.82;80.24
49827;BME280;35715;51.570;6.036;2023-09-07T06:26:39;101828.09;;;19.84;79.88
49827;BME280;35715;51.570;6.036;2023-09-07T06:29:05;101816.75;;;19.83;80.41
49827;BME280;35715;51.570;6.036;2023-09-07T06:31:30;101816.75;;;19.83;80.82
49827;BME280;35715;51.570;6.036;2023-09-07T06:33:55;101816.88;;;19.87;79.96
49827;BME280;35715;51.570;6.036;2023-09-07T06:36:20;101826.63;;;19.91;80.33
49827;BME280;35715;51.570;6.036;2023-09-07T06:38:45;101822.53;;;19.96;81.34
49827;BME280;35715;51.570;6.036;2023-09-07T06:41:11;101833.34;;;20.03;80.04
49827;BME280;35715;51.570;6.036;2023-09-07T06:43:37;101831.00;;;20.10;79.71
49827;BME280;35715;51.570;6.036;2023-09-07T06:46:05;101826.03;;;20.16;80.51
49827;BME280;35715;51.570;6.036;2023-09-07T06:48:30;101825.44;;;20.43;80.02
49827;BME280;35715;51.570;6.036;2023-09-07T06:51:00;101830.38;;;21.19;77.94
49827;BME280;35715;51.570;6.036;2023-09-07T06:53:26;101832.19;;;22.37;73.62
49827;BME280;35715;51.570;6.036;2023-09-07T06:55:56;101837.22;;;23.35;70.87
49827;BME280;35715;51.570;6.036;2023-09-07T06:58:22;101839.00;;;24.25;68.17
49827;BME280;35715;51.570;6.036;2023-09-07T07:00:47;101835.91;;;25.10;66.17
49827;BME280;35715;51.570;6.036;2023-09-07T07:03:13;101838.13;;;25.70;63.81
49827;BME280;35715;51.570;6.036;2023-09-07T07:05:38;101841.47;;;26.03;58.89
49827;BME280;35715;51.570;6.036;2023-09-07T07:08:04;101835.00;;;26.33;59.84
49827;BME280;35715;51.570;6.036;2023-09-07T07:10:29;101843.34;;;26.56;58.51
49827;BME280;35715;51.570;6.036;2023-09-07T07:12:54;101839.56;;;26.92;55.42
49827;BME280;35715;51.570;6.036;2023-09-07T07:15:19;101838.31;;;27.25;55.45
49827;BME280;35715;51.570;6.036;2023-09-07T07:17:45;101834.56;;;27.72;55.57
49827;BME280;35715;51.570;6.036;2023-09-07T07:20:10;101833.19;;;28.07;54.08
49827;BME280;35715;51.570;6.036;2023-09-07T07:22:35;101826.28;;;28.21;51.47
49827;BME280;35715;51.570;6.036;2023-09-07T07:25:01;101837.16;;;28.47;51.89
49827;BME280;35715;51.570;6.036;2023-09-07T07:27:30;101845.41;;;28.72;50.17
49827;BME280;35715;51.570;6.036;2023-09-07T07:29:55;101844.75;;;29.04;51.63
49827;BME280;35715;51.570;6.036;2023-09-07T07:32:21;101844.81;;;29.13;49.53
49827;BME280;35715;51.570;6.036;2023-09-07T07:34:46;101838.53;;;29.02;46.90
49827;BME280;35715;51.570;6.036;2023-09-07T07:37:12;101841.19;;;29.05;46.78
49827;BME280;35715;51.570;6.036;2023-09-07T07:39:37;101841.31;;;29.20;46.86
49827;BME280;35715;51.570;6.036;2023-09-07T07:42:02;101848.56;;;29.46;48.13
49827;BME280;35715;51.570;6.036;2023-09-07T07:44:29;101839.06;;;29.96;45.71
49827;BME280;35715;51.570;6.036;2023-09-07T07:46:54;101851.53;;;30.19;45.85
49827;BME280;35715;51.570;6.036;2023-09-07T07:49:20;101855.19;;;30.70;46.97
49827;BME280;35715;51.570;6.036;2023-09-07T07:51:45;101847.19;;;31.21;43.70
49827;BME280;35715;51.570;6.036;2023-09-07T07:54:10;101850.72;;;31.26;43.04
49827;BME280;35715;51.570;6.036;2023-09-07T07:56:35;101848.91;;;31.36;43.21
49827;BME280;35715;51.570;6.036;2023-09-07T07:59:01;101849.72;;;31.75;42.16
49827;BME280;35715;51.570;6.036;2023-09-07T08:01:27;101844.03;;;32.35;42.40
49827;BME280;35715;51.570;6.036;2023-09-07T08:03:52;101855.41;;;32.61;41.17
49827;BME280;35715;51.570;6.036;2023-09-07T08:06:18;101849.94;;;32.81;40.95
49827;BME280;35715;51.570;6.036;2023-09-07T08:08:43;101835.19;;;32.29;40.31
49827;BME280;35715;51.570;6.036;2023-09-07T08:11:09;101838.94;;;31.92;39.16
49827;BME280;35715;51.570;6.036;2023-09-07T08:13:34;101839.06;;;31.54;39.22
49827;BME280;35715;51.570;6.036;2023-09-07T08:16:00;101836.47;;;31.37;39.82
49827;BME280;35715;51.570;6.036;2023-09-07T08:18:26;101827.41;;;31.89;40.47
49827;BME280;35715;51.570;6.036;2023-09-07T08:20:51;101827.34;;;31.96;38.33
49827;BME280;35715;51.570;6.036;2023-09-07T08:23:16;101834.53;;;31.82;38.21
49827;BME280;35715;51.570;6.036;2023-09-07T08:25:42;101821.06;;;32.03;39.81
49827;BME280;35715;51.570;6.036;2023-09-07T08:28:11;101810.34;;;32.11;38.08
49827;BME280;35715;51.570;6.036;2023-09-07T08:30:36;101815.50;;;32.41;37.43
49827;BME280;35715;51.570;6.036;2023-09-07T08:33:02;101830.47;;;32.66;36.93
49827;BME280;35715;51.570;6.036;2023-09-07T08:35:27;101810.59;;;32.95;35.58
49827;BME280;35715;51.570;6.036;2023-09-07T08:37:53;101817.28;;;32.40;37.11
49827;BME280;35715;51.570;6.036;2023-09-07T08:40:19;101812.06;;;32.22;35.79
49827;BME280;35715;51.570;6.036;2023-09-07T08:42:44;101821.56;;;32.61;36.35
49827;BME280;35715;51.570;6.036;2023-09-07T08:45:09;101819.66;;;32.79;35.88
49827;BME280;35715;51.570;6.036;2023-09-07T08:47:38;101823.91;;;33.00;35.56
49827;BME280;35715;51.570;6.036;2023-09-07T08:50:04;101819.88;;;33.46;34.40
49827;BME280;35715;51.570;6.036;2023-09-07T08:52:31;101818.59;;;33.76;34.75
49827;BME280;35715;51.570;6.036;2023-09-07T08:54:56;101816.22;;;33.53;34.88
49827;BME280;35715;51.570;6.036;2023-09-07T08:57:23;101818.59;;;33.76;35.74
49827;BME280;35715;51.570;6.036;2023-09-07T08:59:49;101814.00;;;33.87;35.02
49827;BME280;35715;51.570;6.036;2023-09-07T09:02:14;101815.09;;;33.69;34.39
49827;BME280;35715;51.570;6.036;2023-09-07T09:04:41;101821.50;;;33.57;33.70
49827;BME280;35715;51.570;6.036;2023-09-07T09:07:09;101826.38;;;33.21;33.51
49827;BME280;35715;51.570;6.036;2023-09-07T09:09:35;101816.94;;;33.64;35.40
49827;BME280;35715;51.570;6.036;2023-09-07T09:12:09;101813.63;;;34.12;33.96
49827;BME280;35715;51.570;6.036;2023-09-07T09:14:35;101822.31;;;34.31;32.33
49827;BME280;35715;51.570;6.036;2023-09-07T09:17:00;101815.97;;;33.73;33.03
49827;BME280;35715;51.570;6.036;2023-09-07T09:19:32;101816.34;;;34.10;32.82
49827;BME280;35715;51.570;6.036;2023-09-07T09:21:58;101812.13;;;33.94;32.38
49827;BME280;35715;51.570;6.036;2023-09-07T09:24:23;101813.50;;;34.21;33.54
49827;BME280;35715;51.570;6.036;2023-09-07T09:26:48;101809.34;;;34.00;33.11
49827;BME280;35715;51.570;6.036;2023-09-07T09:29:14;101808.19;;;34.17;32.43
49827;BME280;35715;51.570;6.036;2023-09-07T09:31:40;101810.31;;;33.94;32.66
49827;BME280;35715;51.570;6.036;2023-09-07T09:34:05;101799.41;;;34.10;33.90
49827;BME280;35715;51.570;6.036;2023-09-07T09:36:34;101800.63;;;34.98;32.34
49827;BME280;35715;51.570;6.036;2023-09-07T09:39:00;101795.00;;;35.56;32.30
49827;BME280;35715;51.570;6.036;2023-09-07T09:41:25;101795.50;;;35.73;30.15
49827;BME280;35715;51.570;6.036;2023-09-07T09:43:51;101793.41;;;35.47;31.20
49827;BME280;35715;51.570;6.036;2023-09-07T09:46:17;101787.41;;;35.75;30.14
49827;BME280;35715;51.570;6.036;2023-09-07T09:48:43;101786.97;;;35.96;29.76
49827;BME280;35715;51.570;6.036;2023-09-07T09:51:08;101790.72;;;36.61;30.76
49827;BME280;35715;51.570;6.036;2023-09-07T09:53:36;101789.03;;;36.58;29.59
49827;BME280;35715;51.570;6.036;2023-09-07T09:56:01;101787.38;;;36.87;29.36
49827;BME280;35715;51.570;6.036;2023-09-07T09:58:26;101789.59;;;37.04;29.74
49827;BME280;35715;51.570;6.036;2023-09-07T10:00:53;101788.91;;;37.29;29.88
49827;BME280;35715;51.570;6.036;2023-09-07T10:03:22;101789.72;;;37.33;28.41
49827;BME280;35715;51.570;6.036;2023-09-07T10:05:48;101781.31;;;37.43;29.42
49827;BME280;35715;51.570;6.036;2023-09-07T10:08:14;101788.56;;;37.40;28.29
49827;BME280;35715;51.570;6.036;2023-09-07T10:10:43;101782.50;;;37.33;29.03
49827;BME280;35715;51.570;6.036;2023-09-07T10:13:13;101781.16;;;37.48;28.94
49827;BME280;35715;51.570;6.036;2023-09-07T10:15:38;101777.03;;;37.66;28.48
49827;BME280;35715;51.570;6.036;2023-09-07T10:18:10;101763.63;;;38.21;27.88
49827;BME280;35715;51.570;6.036;2023-09-07T10:20:55;101772.84;;;37.56;27.75
49827;BME280;35715;51.570;6.036;2023-09-07T10:23:21;101772.72;;;36.99;28.56
49827;BME280;35715;51.570;6.036;2023-09-07T10:25:50;101768.38;;;37.26;29.40
49827;BME280;35715;51.570;6.036;2023-09-07T10:30:45;101768.41;;;38.11;28.50
49827;BME280;35715;51.570;6.036;2023-09-07T10:33:22;101764.97;;;38.34;27.29
49827;BME280;35715;51.570;6.036;2023-09-07T10:35:47;101760.41;;;37.81;28.62
49827;BME280;35715;51.570;6.036;2023-09-07T10:38:13;101757.97;;;37.74;27.73
49827;BME280;35715;51.570;6.036;2023-09-07T10:40:38;101760.59;;;37.75;27.61
49827;BME280;35715;51.570;6.036;2023-09-07T10:43:04;101763.25;;;38.05;28.37
49827;BME280;35715;51.570;6.036;2023-09-07T10:45:29;101761.75;;;37.67;27.98
49827;BME280;35715;51.570;6.036;2023-09-07T10:47:55;101752.75;;;37.38;27.93
49827;BME280;35715;51.570;6.036;2023-09-07T10:50:20;101747.75;;;37.84;27.84
49827;BME280;35715;51.570;6.036;2023-09-07T10:52:45;101749.06;;;37.70;26.52
49827;BME280;35715;51.570;6.036;2023-09-07T10:55:13;101741.56;;;38.35;27.00
49827;BME280;35715;51.570;6.036;2023-09-07T10:57:45;101740.84;;;38.82;27.07
49827;BME280;35715;51.570;6.036;2023-09-07T11:00:11;101745.16;;;38.36;26.36
49827;BME280;35715;51.570;6.036;2023-09-07T11:02:37;101744.38;;;37.77;26.54
49827;BME280;35715;51.570;6.036;2023-09-07T11:05:03;101741.81;;;37.74;28.20
49827;BME280;35715;51.570;6.036;2023-09-07T11:07:28;101741.34;;;37.88;27.51
49827;BME280;35715;51.570;6.036;2023-09-07T11:09:53;101743.16;;;37.87;26.99
49827;BME280;35715;51.570;6.036;2023-09-07T11:12:19;101739.47;;;37.90;27.46
49827;BME280;35715;51.570;6.036;2023-09-07T11:14:50;101735.44;;;37.76;27.87
49827;BME280;35715;51.570;6.036;2023-09-07T11:17:15;101740.81;;;38.03;26.39
49827;BME280;35715;51.570;6.036;2023-09-07T11:19:41;101732.28;;;38.44;27.26
49827;BME280;35715;51.570;6.036;2023-09-07T11:22:09;101721.38;;;38.47;26.12
49827;BME280;35715;51.570;6.036;2023-09-07T11:24:34;101734.59;;;38.29;26.59
49827;BME280;35715;51.570;6.036;2023-09-07T11:27:00;101736.28;;;38.32;26.63
49827;BME280;35715;51.570;6.036;2023-09-07T11:29:25;101718.91;;;38.67;26.70
49827;BME280;35715;51.570;6.036;2023-09-07T11:31:51;101720.81;;;38.64;26.14
49827;BME280;35715;51.570;6.036;2023-09-07T11:34:16;101721.34;;;39.22;26.30
49827;BME280;35715;51.570;6.036;2023-09-07T11:36:41;101722.63;;;38.89;25.63
49827;BME280;35715;51.570;6.036;2023-09-07T11:39:11;101721.66;;;38.66;26.60
49827;BME280;35715;51.570;6.036;2023-09-07T11:41:42;101720.56;;;38.70;25.88
49827;BME280;35715;51.570;6.036;2023-09-07T11:44:07;101712.41;;;38.97;26.46
49827;BME280;35715;51.570;6.036;2023-09-07T11:46:33;101713.31;;;38.47;25.73
49827;BME280;35715;51.570;6.036;2023-09-07T11:48:58;101708.94;;;38.93;25.54
49827;BME280;35715;51.570;6.036;2023-09-07T11:51:24;101708.09;;;38.67;26.12
49827;BME280;35715;51.570;6.036;2023-09-07T11:53:50;101706.41;;;38.38;25.99
49827;BME280;35715;51.570;6.036;2023-09-07T11:56:15;101698.94;;;38.46;26.15
49827;BME280;35715;51.570;6.036;2023-09-07T11:58:41;101698.72;;;38.27;26.88
49827;BME280;35715;51.570;6.036;2023-09-07T12:01:07;101693.97;;;38.07;26.89
49827;BME280;35715;51.570;6.036;2023-09-07T12:03:34;101695.84;;;37.78;27.56
49827;BME280;35715;51.570;6.036;2023-09-07T12:05:59;101696.44;;;37.60;27.41
49827;BME280;35715;51.570;6.036;2023-09-07T12:08:24;101691.91;;;37.60;26.97
49827;BME280;35715;51.570;6.036;2023-09-07T12:10:50;101687.00;;;38.02;27.91
49827;BME280;35715;51.570;6.036;2023-09-07T12:13:15;101678.97;;;37.73;26.67
49827;BME280;35715;51.570;6.036;2023-09-07T12:15:40;101683.78;;;37.90;28.10
49827;BME280;35715;51.570;6.036;2023-09-07T12:18:06;101678.03;;;38.28;27.80
49827;BME280;35715;51.570;6.036;2023-09-07T12:20:32;101671.59;;;38.57;27.72
49827;BME280;35715;51.570;6.036;2023-09-07T12:22:59;101669.25;;;38.72;27.85
49827;BME280;35715;51.570;6.036;2023-09-07T12:25:24;101666.13;;;38.59;26.36
49827;BME280;35715;51.570;6.036;2023-09-07T12:27:50;101672.84;;;38.47;27.27
49827;BME280;35715;51.570;6.036;2023-09-07T12:30:15;101665.78;;;38.43;27.12
49827;BME280;35715;51.570;6.036;2023-09-07T12:32:43;101666.59;;;38.21;26.96
49827;BME280;35715;51.570;6.036;2023-09-07T12:35:08;101656.78;;;37.92;27.38
49827;BME280;35715;51.570;6.036;2023-09-07T12:37:37;101654.97;;;37.64;27.37
49827;BME280;35715;51.570;6.036;2023-09-07T12:40:05;101655.75;;;37.41;27.77
49827;BME280;35715;51.570;6.036;2023-09-07T12:42:36;101653.53;;;37.25;28.38
49827;BME280;35715;51.570;6.036;2023-09-07T12:45:02;101657.88;;;36.68;28.83